createdAt,value
2022-09-12T00:01:40.125Z,100.00
2022-09-12T00:04:06.847Z,100.00
2022-09-12T00:06:35.713Z,100.00
2022-09-12T00:09:06.352Z,100.00
2022-09-12T00:11:36.936Z,100.00
2022-09-12T00:14:05.108Z,100.00
2022-09-12T00:16:34.844Z,100.00
2022-09-12T00:19:02.618Z,100.00
2022-09-12T00:21:30.455Z,100.00
2022-09-12T00:23:57.084Z,100.00
2022-09-12T00:26:24.507Z,100.00
2022-09-12T00:28:51.878Z,100.00
2022-09-12T00:31:24.230Z,100.00
2022-09-12T00:33:51.561Z,100.00
2022-09-12T00:36:20.634Z,100.00
2022-09-12T00:38:49.548Z,100.00
2022-09-12T00:41:21.022Z,100.00
2022-09-12T00:43:53.947Z,100.00
2022-09-12T00:46:46.381Z,100.00
2022-09-12T00:49:44.855Z,100.00
2022-09-12T00:52:54.199Z,100.00
2022-09-12T00:55:38.455Z,100.00
2022-09-12T00:58:13.798Z,100.00
2022-09-12T01:01:00.735Z,100.00
2022-09-12T01:03:48.011Z,100.00
2022-09-12T01:06:41.196Z,100.00
2022-09-12T01:09:28.088Z,100.00
2022-09-12T01:12:15.563Z,100.00
2022-09-12T01:15:02.012Z,100.00
2022-09-12T01:17:39.114Z,100.00
2022-09-12T01:20:05.939Z,100.00
2022-09-12T01:22:51.837Z,100.00
2022-09-12T01:25:27.636Z,100.00
2022-09-12T01:28:09.151Z,100.00
2022-09-12T01:30:48.459Z,100.00
2022-09-12T01:33:20.769Z,100.00
2022-09-12T01:36:02.640Z,100.00
2022-09-12T01:38:42.923Z,100.00
2022-09-12T01:41:30.733Z,100.00
2022-09-12T01:44:22.816Z,100.00
2022-09-12T01:47:16.311Z,100.00
2022-09-12T01:50:02.947Z,100.00
2022-09-12T01:52:45.452Z,100.00
2022-09-12T01:55:27.260Z,100.00
2022-09-12T01:58:05.082Z,100.00
2022-09-12T02:00:36.087Z,100.00
2022-09-12T02:03:16.667Z,100.00
2022-09-12T02:05:52.918Z,100.00
2022-09-12T02:08:25.737Z,100.00
2022-09-12T02:10:56.562Z,100.00
2022-09-12T02:13:32.726Z,100.00
2022-09-12T02:16:08.043Z,100.00
2022-09-12T02:18:39.067Z,100.00
2022-09-12T02:21:07.538Z,100.00
2022-09-12T02:23:38.138Z,100.00
2022-09-12T02:26:16.354Z,100.00
2022-09-12T02:28:43.553Z,100.00
2022-09-12T02:31:38.218Z,100.00
2022-09-12T02:34:20.303Z,100.00
2022-09-12T02:36:56.417Z,100.00
2022-09-12T02:39:24.731Z,100.00
2022-09-12T02:41:53.270Z,100.00
2022-09-12T02:44:20.650Z,100.00
2022-09-12T02:46:52.500Z,100.00
2022-09-12T02:49:19.029Z,100.00
2022-09-12T02:51:47.163Z,100.00
2022-09-12T02:54:17.073Z,100.00
2022-09-12T02:56:45.544Z,100.00
2022-09-12T02:59:17.663Z,100.00
2022-09-12T03:02:03.012Z,100.00
2022-09-12T03:04:54.506Z,100.00
2022-09-12T03:07:52.602Z,100.00
2022-09-12T03:10:39.503Z,100.00
2022-09-12T03:13:24.086Z,100.00
2022-09-12T03:16:17.599Z,100.00
2022-09-12T03:18:58.029Z,100.00
2022-09-12T03:21:41.910Z,100.00
2022-09-12T03:24:11.808Z,100.00
2022-09-12T03:27:02.720Z,100.00
2022-09-12T03:29:31.087Z,100.00
2022-09-12T03:31:59.055Z,100.00
2022-09-12T03:34:27.919Z,100.00
2022-09-12T03:36:55.407Z,100.00
2022-09-12T03:39:24.427Z,100.00
2022-09-12T03:41:51.780Z,100.00
2022-09-12T03:44:18.990Z,100.00
2022-09-12T03:46:45.783Z,100.00
2022-09-12T03:49:13.129Z,100.00
2022-09-12T03:51:39.935Z,100.00
2022-09-12T03:54:07.124Z,100.00
2022-09-12T03:56:34.757Z,100.00
2022-09-12T03:59:02.066Z,100.00
2022-09-12T04:01:28.466Z,100.00
2022-09-12T04:03:55.132Z,100.00
2022-09-12T04:06:22.880Z,100.00
2022-09-12T04:08:52.080Z,100.00
2022-09-12T04:11:21.132Z,100.00
2022-09-12T04:13:48.019Z,100.00
2022-09-12T04:16:17.708Z,100.00
2022-09-12T04:18:45.102Z,100.00
2022-09-12T04:21:17.906Z,100.00
2022-09-12T04:23:44.767Z,100.00
2022-09-12T04:26:13.639Z,100.00
2022-09-12T04:28:40.576Z,100.00
2022-09-12T04:31:13.359Z,100.00
2022-09-12T04:33:40.041Z,100.00
2022-09-12T04:36:09.021Z,100.00
2022-09-12T04:38:36.385Z,100.00
2022-09-12T04:41:16.564Z,100.00
2022-09-12T04:43:43.579Z,100.00
2022-09-12T04:46:11.398Z,100.00
2022-09-12T04:48:38.007Z,100.00
2022-09-12T04:51:21.202Z,100.00
2022-09-12T04:53:50.318Z,100.00
2022-09-12T04:56:17.479Z,100.00
2022-09-12T04:58:44.261Z,100.00
2022-09-12T05:01:14.442Z,100.00
2022-09-12T05:03:45.229Z,100.00
2022-09-12T05:06:14.362Z,100.00
2022-09-12T05:08:41.458Z,100.00
2022-09-12T05:11:11.546Z,100.00
2022-09-12T05:13:38.827Z,100.00
2022-09-12T05:16:06.753Z,100.00
2022-09-12T05:18:35.244Z,100.00
2022-09-12T05:21:04.067Z,100.00
2022-09-12T05:23:31.068Z,100.00
2022-09-12T05:25:59.489Z,100.00
2022-09-12T05:28:30.369Z,100.00
2022-09-12T05:31:08.312Z,100.00
2022-09-12T05:33:36.591Z,100.00
2022-09-12T05:36:06.337Z,100.00
2022-09-12T05:38:36.463Z,100.00
2022-09-12T05:41:16.977Z,100.00
2022-09-12T05:43:46.227Z,100.00
2022-09-12T05:46:19.058Z,100.00
2022-09-12T05:48:47.371Z,100.00
2022-09-12T05:51:19.076Z,100.00
2022-09-12T05:53:47.736Z,100.00
2022-09-12T05:56:17.188Z,100.00
2022-09-12T05:58:46.861Z,100.00
2022-09-12T06:01:18.161Z,100.00
2022-09-12T06:03:49.330Z,100.00
2022-09-12T06:06:16.967Z,100.00
2022-09-12T06:08:46.689Z,100.00
2022-09-12T06:11:18.916Z,100.00
2022-09-12T06:13:45.659Z,100.00
2022-09-12T06:16:18.257Z,100.00
2022-09-12T06:18:50.412Z,100.00
2022-09-12T06:21:17.106Z,100.00
2022-09-12T06:23:45.726Z,100.00
2022-09-12T06:26:12.843Z,100.00
2022-09-12T06:28:41.701Z,100.00
2022-09-12T06:31:12.153Z,100.00
2022-09-12T06:33:40.945Z,100.00
2022-09-12T06:36:12.543Z,100.00
2022-09-12T06:38:40.688Z,100.00
2022-09-12T06:41:12.175Z,100.00
2022-09-12T06:43:40.551Z,100.00
2022-09-12T06:46:08.107Z,100.00
2022-09-12T06:48:38.306Z,100.00
2022-09-12T06:51:13.501Z,100.00
2022-09-12T06:53:41.071Z,100.00
2022-09-12T06:56:11.931Z,100.00
2022-09-12T06:58:38.953Z,100.00
2022-09-12T07:01:15.628Z,100.00
2022-09-12T07:03:43.459Z,100.00
2022-09-12T07:06:15.613Z,100.00
2022-09-12T07:08:42.962Z,100.00
2022-09-12T07:11:13.876Z,100.00
2022-09-12T07:13:41.656Z,100.00
2022-09-12T07:16:10.184Z,100.00
2022-09-12T07:18:38.564Z,100.00
2022-09-12T07:21:08.006Z,100.00
2022-09-12T07:23:34.858Z,100.00
2022-09-12T07:26:02.137Z,100.00
2022-09-12T07:28:30.979Z,100.00
2022-09-12T07:30:58.661Z,100.00
2022-09-12T07:33:28.341Z,100.00
2022-09-12T07:35:55.284Z,100.00
2022-09-12T07:38:21.825Z,100.00
2022-09-12T07:40:48.384Z,100.00
2022-09-12T07:43:15.007Z,100.00
2022-09-12T07:45:42.275Z,100.00
2022-09-12T07:48:09.569Z,100.00
2022-09-12T07:50:36.910Z,100.00
2022-09-12T07:53:04.570Z,100.00
2022-09-12T07:55:31.540Z,100.00
2022-09-12T07:57:58.790Z,100.00
2022-09-12T08:00:25.521Z,100.00
2022-09-12T08:02:53.292Z,100.00
2022-09-12T08:05:23.213Z,100.00
2022-09-12T08:07:49.687Z,100.00
2022-09-12T08:10:16.182Z,100.00
2022-09-12T08:12:43.163Z,100.00
2022-09-12T08:15:09.861Z,100.00
2022-09-12T08:17:36.641Z,100.00
2022-09-12T08:20:04.155Z,100.00
2022-09-12T08:22:31.323Z,100.00
2022-09-12T08:24:58.553Z,100.00
2022-09-12T08:27:25.660Z,100.00
2022-09-12T08:29:53.664Z,100.00
2022-09-12T08:32:20.489Z,100.00
2022-09-12T08:34:47.115Z,100.00
2022-09-12T08:37:13.530Z,100.00
2022-09-12T08:39:39.968Z,100.00
2022-09-12T08:42:06.993Z,98.66
2022-09-12T08:45:02.581Z,98.07
2022-09-12T08:47:33.782Z,96.72
2022-09-12T08:50:12.507Z,96.70
2022-09-12T08:52:50.321Z,93.82
2022-09-12T08:55:44.461Z,95.11
2022-09-12T08:58:24.082Z,92.82
2022-09-12T09:00:50.834Z,90.95
2022-09-12T09:03:45.770Z,90.46
2022-09-12T09:06:36.468Z,90.27
2022-09-12T09:09:08.435Z,88.65
2022-09-12T09:11:37.788Z,87.43
2022-09-12T09:14:41.758Z,86.27
2022-09-12T09:17:20.093Z,83.90
2022-09-12T09:19:52.712Z,82.47
2022-09-12T09:22:33.126Z,82.76
2022-09-12T09:25:06.038Z,80.03
2022-09-12T09:27:41.887Z,79.48
2022-09-12T09:30:17.842Z,79.79
2022-09-12T09:32:49.726Z,77.62
2022-09-12T09:35:36.192Z,76.70
2022-09-12T09:38:34.496Z,75.88
2022-09-12T09:41:21.266Z,75.52
2022-09-12T09:43:48.498Z,74.06
2022-09-12T09:46:15.114Z,71.85
2022-09-12T09:48:46.145Z,73.73
2022-09-12T09:51:15.279Z,72.79
2022-09-12T09:53:48.295Z,72.08
2022-09-12T09:56:30.753Z,67.75
2022-09-12T09:58:57.238Z,69.89
2022-09-12T10:01:24.715Z,69.84
2022-09-12T10:03:55.962Z,69.61
2022-09-12T10:06:34.501Z,68.68
2022-09-12T10:09:26.971Z,67.16
2022-09-12T10:11:55.846Z,69.23
2022-09-12T10:14:40.402Z,69.17
2022-09-12T10:17:34.330Z,68.63
2022-09-12T10:20:20.541Z,68.43
2022-09-12T10:22:48.907Z,65.17
2022-09-12T10:25:18.660Z,67.17
2022-09-12T10:27:53.437Z,65.70
2022-09-12T10:30:21.715Z,63.50
2022-09-12T10:32:54.394Z,61.35
2022-09-12T10:35:24.371Z,61.80
2022-09-12T10:38:00.015Z,62.33
2022-09-12T10:40:30.971Z,63.28
2022-09-12T10:42:59.600Z,61.94
2022-09-12T10:45:30.970Z,62.55
2022-09-12T10:48:04.158Z,63.00
2022-09-12T10:50:43.401Z,59.74
2022-09-12T10:53:13.292Z,59.32
2022-09-12T10:55:42.694Z,59.29
2022-09-12T10:58:29.025Z,58.83
2022-09-12T11:01:23.544Z,59.14
2022-09-12T11:04:06.091Z,57.41
2022-09-12T11:07:11.866Z,56.73
2022-09-12T11:09:47.771Z,58.98
2022-09-12T11:12:26.776Z,54.00
2022-09-12T11:15:07.861Z,52.82
2022-09-12T11:18:16.100Z,52.57
2022-09-12T11:20:58.869Z,51.61
2022-09-12T11:23:37.432Z,50.49
2022-09-12T11:26:22.985Z,51.98
2022-09-12T11:29:16.476Z,50.82
2022-09-12T11:32:01.681Z,47.90
2022-09-12T11:35:01.735Z,49.77
2022-09-12T11:37:52.701Z,48.48
2022-09-12T11:40:20.349Z,45.66
2022-09-12T11:42:51.535Z,46.24
2022-09-12T11:45:21.074Z,46.25
2022-09-12T11:47:55.313Z,45.88
2022-09-12T11:50:27.093Z,44.92
2022-09-12T11:52:57.851Z,44.08
2022-09-12T11:55:29.805Z,44.75
2022-09-12T11:57:58.682Z,42.91
2022-09-12T12:00:44.273Z,42.60
2022-09-12T12:03:23.616Z,42.35
2022-09-12T12:05:57.740Z,42.53
2022-09-12T12:08:30.883Z,41.33
2022-09-12T12:11:02.741Z,41.63
2022-09-12T12:13:43.082Z,41.72
2022-09-12T12:16:40.062Z,42.18
2022-09-12T12:19:15.659Z,41.09
2022-09-12T12:21:47.776Z,39.69
2022-09-12T12:24:25.155Z,39.05
2022-09-12T12:26:55.840Z,39.10
2022-09-12T12:29:22.380Z,37.25
2022-09-12T12:32:03.963Z,36.34
2022-09-12T12:34:38.161Z,35.02
2022-09-12T12:37:20.073Z,37.96
2022-09-12T12:39:53.781Z,36.55
2022-09-12T12:42:35.741Z,36.82
2022-09-12T12:45:04.435Z,35.63
2022-09-12T12:47:40.284Z,35.30
2022-09-12T12:50:16.050Z,34.76
2022-09-12T12:53:22.591Z,36.29
2022-09-12T12:55:53.153Z,36.42
2022-09-12T12:58:37.146Z,35.69
2022-09-12T13:01:09.639Z,34.78
2022-09-12T13:03:38.259Z,34.29
2022-09-12T13:06:21.408Z,34.29
2022-09-12T13:09:00.228Z,33.65
2022-09-12T13:11:33.861Z,32.11
2022-09-12T13:14:27.501Z,31.71
2022-09-12T13:16:58.476Z,30.79
2022-09-12T13:19:32.368Z,32.04
2022-09-12T13:22:06.554Z,30.56
2022-09-12T13:24:34.430Z,30.68
2022-09-12T13:27:02.075Z,31.63
2022-09-12T13:29:29.026Z,30.84
2022-09-12T13:32:01.124Z,30.82
2022-09-12T13:34:35.005Z,30.40
2022-09-12T13:37:16.688Z,31.59
2022-09-12T13:39:54.171Z,30.80
2022-09-12T13:42:38.329Z,30.43
2022-09-12T13:45:17.325Z,31.09
2022-09-12T13:47:51.882Z,30.27
2022-09-12T13:50:24.465Z,31.53
2022-09-12T13:52:58.382Z,32.14
2022-09-12T13:55:37.375Z,31.47
2022-09-12T13:58:06.177Z,31.16
2022-09-12T14:00:34.813Z,30.37
2022-09-12T14:03:20.991Z,30.38
2022-09-12T14:05:56.876Z,31.81
2022-09-12T14:08:23.840Z,28.88
2022-09-12T14:10:50.980Z,28.99
2022-09-12T14:13:21.304Z,29.28
2022-09-12T14:15:52.549Z,28.16
2022-09-12T14:18:28.530Z,29.65
2022-09-12T14:21:01.402Z,30.10
2022-09-12T14:23:30.524Z,29.39
2022-09-12T14:25:59.010Z,28.07
2022-09-12T14:28:30.108Z,28.88
2022-09-12T14:31:18.931Z,29.43
2022-09-12T14:33:51.269Z,28.25
2022-09-12T14:36:28.360Z,27.76
2022-09-12T14:39:02.195Z,28.45
2022-09-12T14:41:33.369Z,28.85
2022-09-12T14:44:04.138Z,28.76
2022-09-12T14:46:35.139Z,27.72
2022-09-12T14:49:10.374Z,28.80
2022-09-12T14:51:49.384Z,27.06
2022-09-12T14:54:30.186Z,27.24
2022-09-12T14:56:59.646Z,27.15
2022-09-12T14:59:28.260Z,26.56
2022-09-12T15:02:13.993Z,27.51
2022-09-12T15:04:42.976Z,26.09
2022-09-12T15:07:25.934Z,27.22
2022-09-12T15:09:53.044Z,26.32
2022-09-12T15:12:19.485Z,26.53
2022-09-12T15:14:45.958Z,25.63
2022-09-12T15:17:12.498Z,25.98
2022-09-12T15:19:39.126Z,26.27
2022-09-12T15:22:05.723Z,24.66
2022-09-12T15:24:32.379Z,23.91
2022-09-12T15:26:58.963Z,24.89
2022-09-12T15:29:25.343Z,25.30
2022-09-12T15:31:51.779Z,25.03
2022-09-12T15:34:19.609Z,24.97
2022-09-12T15:36:46.050Z,24.40
2022-09-12T15:39:13.202Z,24.94
2022-09-12T15:41:39.742Z,25.58
2022-09-12T15:44:08.140Z,25.20
2022-09-12T15:46:34.675Z,25.05
2022-09-12T15:49:01.230Z,24.43
2022-09-12T15:51:27.737Z,24.46
2022-09-12T15:53:54.646Z,23.79
2022-09-12T15:56:22.185Z,23.67
2022-09-12T15:58:58.706Z,24.02
2022-09-12T16:01:27.177Z,24.56
2022-09-12T16:03:53.784Z,25.10
2022-09-12T16:06:20.263Z,24.17
2022-09-12T16:08:46.755Z,23.83
2022-09-12T16:11:31.474Z,23.67
2022-09-12T16:13:58.256Z,23.60
2022-09-12T16:16:24.796Z,24.14
2022-09-12T16:18:51.240Z,23.72
2022-09-12T16:21:17.820Z,24.17
2022-09-12T16:23:45.671Z,24.20
2022-09-12T16:26:12.300Z,23.38
2022-09-12T16:28:39.134Z,24.40
2022-09-12T16:31:07.363Z,23.65
2022-09-12T16:33:34.884Z,24.12
2022-09-12T16:36:07.287Z,24.59
2022-09-12T16:38:34.849Z,25.30
2022-09-12T16:41:06.470Z,25.90
2022-09-12T16:43:34.916Z,26.70
2022-09-12T16:46:02.967Z,27.40
2022-09-12T16:48:29.999Z,28.86
2022-09-12T16:50:58.480Z,29.13
2022-09-12T16:53:25.050Z,29.99
2022-09-12T16:55:51.576Z,30.06
2022-09-12T16:58:17.998Z,31.23
2022-09-12T17:00:44.667Z,30.11
2022-09-12T17:03:11.453Z,30.69
2022-09-12T17:05:38.277Z,31.86
2022-09-12T17:08:05.131Z,33.04
2022-09-12T17:10:32.563Z,35.35
2022-09-12T17:12:59.561Z,35.60
2022-09-12T17:15:26.102Z,36.93
2022-09-12T17:17:52.596Z,37.38
2022-09-12T17:20:19.620Z,37.66
2022-09-12T17:22:46.359Z,38.88
2022-09-12T17:25:12.916Z,39.61
2022-09-12T17:27:39.429Z,41.07
2022-09-12T17:30:06.964Z,40.07
2022-09-12T17:32:33.687Z,41.24
2022-09-12T17:35:00.153Z,42.00
2022-09-12T17:37:26.571Z,41.85
2022-09-12T17:39:53.106Z,43.03
2022-09-12T17:42:21.695Z,43.37
2022-09-12T17:44:48.197Z,44.40
2022-09-12T17:47:14.715Z,45.17
2022-09-12T17:49:41.164Z,46.31
2022-09-12T17:52:08.124Z,46.30
2022-09-12T17:54:34.750Z,47.10
2022-09-12T17:57:01.177Z,48.93
2022-09-12T17:59:27.673Z,49.16
2022-09-12T18:02:12.774Z,50.96
2022-09-12T18:04:41.150Z,52.38
2022-09-12T18:07:08.268Z,52.29
2022-09-12T18:09:36.138Z,54.52
2022-09-12T18:12:02.807Z,55.55
2022-09-12T18:14:29.299Z,56.61
2022-09-12T18:17:00.169Z,57.88
2022-09-12T18:19:27.682Z,57.52
2022-09-12T18:21:56.051Z,57.13
2022-09-12T18:24:22.732Z,58.94
2022-09-12T18:26:49.430Z,60.29
2022-09-12T18:29:16.944Z,61.38
2022-09-12T18:31:44.710Z,61.45
2022-09-12T18:34:13.635Z,62.52
2022-09-12T18:36:41.838Z,63.96
2022-09-12T18:39:08.738Z,65.18
2022-09-12T18:41:35.423Z,65.02
2022-09-12T18:44:02.545Z,66.00
2022-09-12T18:46:31.262Z,65.77
2022-09-12T18:48:59.009Z,66.41
2022-09-12T18:51:34.765Z,67.80
2022-09-12T18:54:12.661Z,66.15
2022-09-12T18:56:40.832Z,67.12
2022-09-12T18:59:07.671Z,65.99
2022-09-12T19:01:37.172Z,66.92
2022-09-12T19:04:05.028Z,68.31
2022-09-12T19:06:34.626Z,69.56
2022-09-12T19:09:06.711Z,70.71
2022-09-12T19:11:35.080Z,72.91
2022-09-12T19:14:02.030Z,72.21
2022-09-12T19:16:28.798Z,71.74
2022-09-12T19:18:56.538Z,73.30
2022-09-12T19:21:27.084Z,74.31
2022-09-12T19:23:57.770Z,74.03
2022-09-12T19:26:24.688Z,74.30
2022-09-12T19:28:51.429Z,74.39
2022-09-12T19:31:20.022Z,74.74
2022-09-12T19:33:47.195Z,75.57
2022-09-12T19:36:41.347Z,73.92
2022-09-12T19:39:05.229Z,73.96
2022-09-12T19:41:31.901Z,74.26
2022-09-12T19:43:58.957Z,74.82
2022-09-12T19:46:26.143Z,75.37
2022-09-12T19:48:53.383Z,76.72
2022-09-12T19:51:21.298Z,78.76
2022-09-12T19:53:50.034Z,78.79
2022-09-12T19:56:16.732Z,81.36
2022-09-12T19:58:45.888Z,80.75
2022-09-12T20:01:15.610Z,79.79
2022-09-12T20:03:43.014Z,79.54
2022-09-12T20:06:13.479Z,79.37
2022-09-12T20:08:42.092Z,81.07
2022-09-12T20:11:09.116Z,80.54
2022-09-12T20:13:35.641Z,81.93
2022-09-12T20:16:21.411Z,81.28
2022-09-12T20:18:53.717Z,82.51
2022-09-12T20:21:24.855Z,84.44
2022-09-12T20:23:51.271Z,83.81
2022-09-12T20:26:20.056Z,84.04
2022-09-12T20:28:46.548Z,84.31
2022-09-12T20:31:15.820Z,85.19
2022-09-12T20:33:42.793Z,85.45
2022-09-12T20:36:12.238Z,86.03
2022-09-12T20:38:39.060Z,86.83
2022-09-12T20:41:08.353Z,86.63
2022-09-12T20:43:35.405Z,86.54
2022-09-12T20:46:10.227Z,86.83
2022-09-12T20:48:39.815Z,87.43
2022-09-12T20:51:06.752Z,87.88
2022-09-12T20:53:35.318Z,88.19
2022-09-12T20:56:03.428Z,89.34
2022-09-12T20:58:30.028Z,89.16
2022-09-12T21:00:57.160Z,90.92
2022-09-12T21:03:25.285Z,90.22
2022-09-12T21:05:52.127Z,90.35
2022-09-12T21:08:18.843Z,91.40
2022-09-12T21:10:45.341Z,92.06
2022-09-12T21:13:13.193Z,92.60
2022-09-12T21:15:41.018Z,93.74
2022-09-12T21:18:08.015Z,94.38
2022-09-12T21:20:34.865Z,95.96
2022-09-12T21:23:01.395Z,94.93
2022-09-12T21:25:29.248Z,93.71
2022-09-12T21:27:55.870Z,94.47
2022-09-12T21:30:22.877Z,94.39
2022-09-12T21:32:49.582Z,93.99
2022-09-12T21:35:16.363Z,93.96
2022-09-12T21:37:43.142Z,92.37
2022-09-12T21:40:10.087Z,91.00
2022-09-12T21:42:37.163Z,91.57
2022-09-12T21:45:03.894Z,90.30
2022-09-12T21:47:30.842Z,91.00
2022-09-12T21:49:58.298Z,91.60
2022-09-12T21:52:25.032Z,91.29
2022-09-12T21:54:51.678Z,92.65
2022-09-12T21:57:18.110Z,93.38
2022-09-12T21:59:44.571Z,93.43
2022-09-12T22:02:12.290Z,92.79
2022-09-12T22:04:38.771Z,92.19
2022-09-12T22:07:05.769Z,93.37
2022-09-12T22:09:34.480Z,92.30
2022-09-12T22:12:02.752Z,93.22
2022-09-12T22:14:29.788Z,93.42
2022-09-12T22:16:56.964Z,92.52
2022-09-12T22:19:23.777Z,92.64
2022-09-12T22:22:09.569Z,91.24
2022-09-12T22:24:36.100Z,91.42
2022-09-12T22:27:05.525Z,92.21
2022-09-12T22:29:32.772Z,92.85
2022-09-12T22:32:00.045Z,92.40
2022-09-12T22:34:29.554Z,92.22
2022-09-12T22:36:56.607Z,93.56
2022-09-12T22:39:23.862Z,92.72
2022-09-12T22:41:50.809Z,92.60
2022-09-12T22:44:18.007Z,92.70
2022-09-12T22:46:45.265Z,92.78
2022-09-12T22:49:11.797Z,92.05
2022-09-12T22:51:39.065Z,92.46
2022-09-12T22:54:06.194Z,93.52
2022-09-12T22:56:33.351Z,93.13
2022-09-12T22:58:59.801Z,93.01
2022-09-12T23:01:26.522Z,94.88
2022-09-12T23:03:53.241Z,96.89
2022-09-12T23:06:19.688Z,99.34
2022-09-12T23:08:46.621Z,99.62
2022-09-12T23:11:15.999Z,98.65
2022-09-12T23:13:47.754Z,97.88
2022-09-12T23:16:23.177Z,99.62
2022-09-12T23:18:50.380Z,98.72
2022-09-12T23:21:19.157Z,99.06
2022-09-12T23:23:46.417Z,98.64
2022-09-12T23:26:15.861Z,99.58
2022-09-12T23:28:48.630Z,100.00
2022-09-12T23:31:16.947Z,100.00
2022-09-12T23:33:44.196Z,100.00
2022-09-12T23:36:14.458Z,100.00
2022-09-12T23:38:43.612Z,100.00
2022-09-12T23:41:11.814Z,100.00
2022-09-12T23:43:38.848Z,100.00
2022-09-12T23:46:06.758Z,100.00
2022-09-12T23:48:34.513Z,100.00
2022-09-12T23:51:02.211Z,100.00
2022-09-12T23:53:29.451Z,100.00
2022-09-12T23:55:56.809Z,100.00
2022-09-12T23:58:24.128Z,100.00
